PGUA/UAM METAR and TAF weather

Enter ICAO airport designator
Station Type Date Time Source
PGUA METAR 2019/06/19 06:57 UTC NOAA

PGUA 190657Z 11011KT 10SM FEW021 SCT040 29/23 A2980 RMK AO2A SLP082 T02940228 PNO $


Station Type Date Time Source
PGUA Decoded METAR 2019/06/19 06:57 UTC NOAA

Andersen, Mariana Is, Andersen Air Force Base, GU, United States (PGUA) 13-35N 144-56E 187M
Jun 19, 2019 - 02:57 AM EDT / 2019.06.19 0657 UTC
Wind: from the ESE (110 degrees) at 13 MPH (11 KT):0
Visibility: 10 mile(s):0
Sky conditions: partly cloudy
Temperature: 84.9 F (29.4 C)
Dew Point: 73.0 F (22.8 C)
Relative Humidity: 67%
Pressure (altimeter): 29.8 in. Hg (1009 hPa)
ob: PGUA 190657Z 11011KT 10SM FEW021 SCT040 29/23 A2980 RMK AO2A SLP082 T02940228 PNO
cycle: 7

Station Type Date Time Source
PGUA TAF 2019/06/19 02:18 UTC NOAA

TAF PGUA 190200Z 1902/2008 12012KT 9999 FEW015 SCT070 QNH2985INS
TEMPO 1902/1906 8000 -SHRA BKN015
BECMG 1911/1912 09010G15KT 9999 SCT020 BKN030 QNH2980INS TX31/1903Z TN25/1919Z

Example: see airport list